Time;durP1;ratioP1;P1;durP2;ratioP2;P2;SDS_P1;SDS_P2;PMS_P1;PMS_P2;Temp;Humidity;BMP_temperature;BMP_pressure;BME280_temperature;BME280_humidity;BME280_pressure;Samples;Min_cycle;Max_cycle;Signal;HPM_P1;HPM_P2
2023/05/13 00:02:23;;;;;;;7.50;4.40;;;13.60;99.90;;;;;;4994421;28;20516;-77
2023/05/13 00:04:49;;;;;;;4.75;4.10;;;13.60;99.90;;;;;;4995252;28;20028;-76
2023/05/13 00:07:14;;;;;;;6.93;4.75;;;13.60;99.90;;;;;;4990852;28;20027;-76
2023/05/13 00:09:40;;;;;;;10.75;5.03;;;13.50;99.90;;;;;;4993108;28;20038;-75
2023/05/13 00:12:06;;;;;;;10.85;5.10;;;13.50;99.90;;;;;;4993727;28;20491;-76
2023/05/13 00:14:31;;;;;;;10.13;6.35;;;13.40;99.90;;;;;;4994991;28;20050;-76
2023/05/13 00:16:58;;;;;;;6.60;5.78;;;13.40;99.90;;;;;;4989510;28;20030;-76
2023/05/13 00:19:23;;;;;;;6.47;5.55;;;13.20;99.90;;;;;;4998761;22;20066;-76
2023/05/13 00:21:49;;;;;;;7.00;5.85;;;13.10;99.90;;;;;;4995207;28;20417;-76
2023/05/13 00:24:15;;;;;;;9.65;6.18;;;13.00;99.90;;;;;;4994547;28;20041;-77
2023/05/13 00:26:40;;;;;;;9.30;5.95;;;13.00;99.90;;;;;;4978262;28;20038;-76
2023/05/13 00:29:06;;;;;;;9.88;6.15;;;12.80;99.90;;;;;;4977009;28;20050;-76
2023/05/13 00:31:31;;;;;;;9.73;6.13;;;12.80;99.90;;;;;;4993110;28;20061;-76
2023/05/13 00:33:57;;;;;;;7.95;6.78;;;12.80;99.90;;;;;;4994185;28;20466;-76
2023/05/13 00:36:23;;;;;;;8.60;6.65;;;12.70;99.90;;;;;;4993583;28;20586;-76
2023/05/13 00:38:48;;;;;;;8.43;6.47;;;12.60;99.90;;;;;;4976108;28;20026;-76
2023/05/13 00:41:14;;;;;;;7.85;5.93;;;12.60;99.90;;;;;;4992952;28;20033;-76
2023/05/13 00:43:39;;;;;;;6.90;5.40;;;12.50;99.90;;;;;;4993576;28;20053;-76
2023/05/13 00:46:05;;;;;;;9.10;6.03;;;12.50;99.90;;;;;;4989553;28;20062;-76
2023/05/13 00:48:32;;;;;;;8.02;5.60;;;12.50;99.90;;;;;;4993426;28;20037;-75
2023/05/13 00:50:58;;;;;;;11.23;5.28;;;12.50;99.90;;;;;;4993422;28;20018;-76
2023/05/13 00:53:24;;;;;;;6.88;5.30;;;12.50;99.90;;;;;;4992948;28;20442;-75
2023/05/13 00:55:49;;;;;;;12.63;5.47;;;12.50;99.90;;;;;;4976316;28;20034;-75
2023/05/13 00:58:16;;;;;;;10.90;5.20;;;12.50;99.90;;;;;;4980525;28;20026;-76
2023/05/13 01:01:03;;;;;;;9.15;5.07;;;12.50;99.90;;;;;;4983803;28;20038;-75
2023/05/13 01:03:42;;;;;;;6.07;4.75;;;12.60;99.90;;;;;;4985404;28;20027;-76
2023/05/13 01:06:16;;;;;;;9.02;4.80;;;12.50;99.90;;;;;;4964440;28;20085;-76
2023/05/13 01:08:57;;;;;;;10.98;5.25;;;12.50;99.90;;;;;;4992277;28;20018;-75
2023/05/13 01:11:28;;;;;;;7.07;5.15;;;12.60;99.90;;;;;;4981863;28;20107;-76
2023/05/13 01:14:12;;;;;;;5.55;4.22;;;12.60;99.90;;;;;;4975361;28;20019;-75
2023/05/13 01:16:59;;;;;;;9.05;4.47;;;12.60;99.90;;;;;;4992971;28;20498;-76
2023/05/13 01:19:44;;;;;;;6.70;4.65;;;12.70;99.90;;;;;;4966245;28;20047;-76
2023/05/13 01:22:10;;;;;;;6.07;4.45;;;12.70;99.90;;;;;;4975258;28;20455;-76
2023/05/13 01:24:35;;;;;;;6.80;4.25;;;12.70;99.90;;;;;;4974612;28;20074;-76
2023/05/13 01:27:01;;;;;;;6.20;4.40;;;12.70;99.90;;;;;;4973957;28;20139;-76
2023/05/13 01:29:27;;;;;;;6.85;4.50;;;12.70;99.90;;;;;;4973622;28;20031;-76
2023/05/13 01:31:54;;;;;;;7.53;5.20;;;12.60;99.90;;;;;;4957048;28;20406;-75
2023/05/13 01:34:22;;;;;;;7.80;4.25;;;12.60;99.90;;;;;;4987236;28;20101;-75
2023/05/13 01:36:48;;;;;;;8.30;4.40;;;12.60;99.90;;;;;;4992154;28;20028;-75
2023/05/13 01:39:15;;;;;;;6.43;4.53;;;12.50;99.90;;;;;;4975116;28;20031;-76
2023/05/13 01:41:41;;;;;;;8.68;5.10;;;12.40;99.90;;;;;;4974275;28;20034;-75
2023/05/13 01:44:06;;;;;;;7.70;5.53;;;12.40;99.90;;;;;;4973279;28;20034;-76
2023/05/13 01:46:32;;;;;;;7.75;5.07;;;12.30;99.90;;;;;;4975521;28;20051;-76
2023/05/13 01:48:57;;;;;;;9.25;4.57;;;12.20;99.90;;;;;;4976177;28;20113;-76
2023/05/13 01:51:23;;;;;;;6.78;4.97;;;12.10;99.90;;;;;;4992749;28;20034;-75
2023/05/13 01:53:48;;;;;;;6.20;4.70;;;12.00;99.90;;;;;;4983640;28;20023;-76
2023/05/13 01:56:14;;;;;;;7.93;5.30;;;12.00;99.90;;;;;;4973101;28;20026;-76
2023/05/13 01:58:39;;;;;;;7.05;5.10;;;12.00;99.90;;;;;;4960255;28;20032;-76
2023/05/13 02:01:05;;;;;;;11.05;5.72;;;11.90;99.90;;;;;;4976092;28;20034;-76
2023/05/13 02:03:31;;;;;;;9.70;5.38;;;12.00;99.90;;;;;;4979223;28;20084;-76
2023/05/13 02:05:56;;;;;;;8.90;5.45;;;11.90;99.90;;;;;;4978273;28;20053;-75
2023/05/13 02:08:24;;;;;;;8.85;5.93;;;11.90;99.90;;;;;;4987074;28;20446;-76
2023/05/13 02:10:55;;;;;;;5.78;4.72;;;11.90;99.90;;;;;;4978523;28;20506;-75
2023/05/13 02:13:20;;;;;;;9.25;4.95;;;11.80;99.90;;;;;;4973842;28;20023;-75
2023/05/13 02:15:46;;;;;;;8.23;5.20;;;11.70;99.90;;;;;;4975889;28;20110;-75
2023/05/13 02:18:11;;;;;;;6.93;4.57;;;11.70;99.90;;;;;;4970430;28;20041;-76
2023/05/13 02:20:37;;;;;;;7.82;5.18;;;11.70;99.90;;;;;;4971738;28;20409;-75
2023/05/13 02:23:02;;;;;;;7.90;5.20;;;11.60;99.90;;;;;;4956336;28;20467;-76
2023/05/13 02:25:28;;;;;;;7.90;5.30;;;11.60;99.90;;;;;;4967547;28;20649;-75
2023/05/13 02:27:53;;;;;;;7.85;4.45;;;11.70;99.90;;;;;;4967598;28;20038;-76
2023/05/13 02:30:19;;;;;;;8.88;4.88;;;11.60;99.90;;;;;;4957372;28;20041;-75
2023/05/13 02:32:46;;;;;;;13.63;5.18;;;11.70;99.90;;;;;;4942776;28;20023;-76
2023/05/13 02:35:12;;;;;;;9.00;4.38;;;11.70;99.90;;;;;;4959049;28;20027;-75
2023/05/13 02:37:37;;;;;;;6.18;5.00;;;11.70;99.90;;;;;;4953929;28;20070;-75
2023/05/13 02:40:03;;;;;;;5.18;4.43;;;11.80;99.90;;;;;;4961592;28;20037;-76
2023/05/13 02:42:29;;;;;;;6.78;4.72;;;11.70;99.90;;;;;;4958075;28;20479;-76
2023/05/13 02:44:54;;;;;;;6.47;3.97;;;11.70;99.90;;;;;;4960107;28;20681;-75
2023/05/13 02:47:20;;;;;;;8.82;4.50;;;11.70;99.90;;;;;;4959848;28;20039;-76
2023/05/13 02:49:45;;;;;;;7.95;4.65;;;11.70;99.90;;;;;;4957827;28;20039;-75
2023/05/13 02:52:11;;;;;;;5.25;4.32;;;11.70;99.90;;;;;;4963049;28;20038;-76
2023/05/13 02:54:36;;;;;;;8.63;4.85;;;11.80;99.90;;;;;;4956977;28;20074;-75
2023/05/13 02:57:02;;;;;;;8.20;4.70;;;11.70;99.90;;;;;;4954342;28;20372;-76
2023/05/13 02:59:27;;;;;;;7.35;5.03;;;11.70;99.90;;;;;;4950382;28;20031;-76
2023/05/13 03:01:53;;;;;;;13.07;5.22;;;11.70;99.90;;;;;;4955981;28;20500;-75
2023/05/13 03:04:18;;;;;;;6.40;4.05;;;11.70;99.90;;;;;;4957470;28;20031;-76
2023/05/13 03:06:44;;;;;;;9.27;4.80;;;11.70;99.90;;;;;;4972243;28;20054;-75
2023/05/13 03:09:09;;;;;;;6.90;4.63;;;11.60;99.90;;;;;;4954641;28;20019;-75
2023/05/13 03:11:35;;;;;;;7.32;5.03;;;11.60;99.90;;;;;;4958092;28;20095;-76
2023/05/13 03:14:00;;;;;;;6.75;4.72;;;11.50;99.90;;;;;;4945527;28;20053;-75
2023/05/13 03:16:26;;;;;;;6.13;4.75;;;11.40;99.90;;;;;;4954147;28;20031;-75
2023/05/13 03:18:51;;;;;;;7.25;5.30;;;11.40;99.90;;;;;;4972208;28;20022;-75
2023/05/13 03:21:17;;;;;;;11.20;5.70;;;11.40;99.90;;;;;;4965858;28;20066;-75
2023/05/13 03:23:43;;;;;;;9.55;5.60;;;11.40;99.90;;;;;;4961372;28;20054;-75
2023/05/13 03:26:08;;;;;;;11.00;5.30;;;11.30;99.90;;;;;;4977866;28;20410;-76
2023/05/13 03:28:34;;;;;;;11.75;5.78;;;11.30;99.90;;;;;;4971497;28;20058;-76
2023/05/13 03:30:59;;;;;;;7.00;5.55;;;11.20;99.90;;;;;;4973713;28;20023;-77
2023/05/13 03:33:25;;;;;;;8.10;5.68;;;11.20;99.90;;;;;;4969733;28;20110;-77
2023/05/13 03:35:51;;;;;;;11.00;6.15;;;11.20;99.90;;;;;;4974101;28;20046;-77
2023/05/13 03:38:16;;;;;;;8.10;6.25;;;11.10;99.90;;;;;;4973152;28;20059;-77
2023/05/13 03:40:42;;;;;;;9.93;6.28;;;11.20;99.90;;;;;;4974148;28;20023;-77
2023/05/13 03:43:07;;;;;;;8.43;5.97;;;11.10;99.90;;;;;;4973130;28;20556;-78
2023/05/13 03:45:33;;;;;;;10.93;6.47;;;11.10;99.90;;;;;;4973543;28;20039;-76
2023/05/13 03:47:58;;;;;;;9.60;6.93;;;11.10;99.90;;;;;;4971957;28;20029;-77
2023/05/13 03:50:24;;;;;;;7.38;5.90;;;11.10;99.90;;;;;;4974018;28;20117;-77
2023/05/13 03:52:49;;;;;;;9.32;6.30;;;11.00;99.90;;;;;;4973430;28;20390;-76
2023/05/13 03:55:15;;;;;;;8.82;6.38;;;11.00;99.90;;;;;;4971723;28;20023;-77
2023/05/13 03:57:43;;;;;;;8.85;6.07;;;11.00;99.90;;;;;;4969261;28;20493;-77
2023/05/13 04:00:10;;;;;;;12.95;6.90;;;11.00;99.90;;;;;;4967208;28;20160;-78
2023/05/13 04:02:35;;;;;;;8.40;7.18;;;11.00;99.90;;;;;;4972073;28;20518;-77
2023/05/13 04:05:01;;;;;;;8.52;6.72;;;11.00;99.90;;;;;;4972039;28;20099;-77
2023/05/13 04:07:26;;;;;;;14.30;7.57;;;10.90;99.90;;;;;;4970735;28;20043;-78
2023/05/13 04:09:52;;;;;;;8.48;6.97;;;10.90;99.90;;;;;;4971906;28;20023;-77
2023/05/13 04:12:17;;;;;;;9.35;7.20;;;10.90;99.90;;;;;;4969706;28;20395;-78
2023/05/13 04:14:43;;;;;;;11.27;7.22;;;10.80;99.90;;;;;;4971857;28;20058;-78
2023/05/13 04:17:08;;;;;;;11.13;7.18;;;10.80;99.90;;;;;;4971531;28;20035;-78
2023/05/13 04:19:34;;;;;;;10.50;7.35;;;10.80;99.90;;;;;;4969647;28;20105;-77
2023/05/13 04:21:59;;;;;;;16.52;7.45;;;10.80;99.90;;;;;;4969998;28;20047;-77
2023/05/13 04:24:25;;;;;;;10.38;6.60;;;10.80;99.90;;;;;;4948657;28;20126;-77
2023/05/13 04:26:50;;;;;;;11.38;7.45;;;10.80;99.90;;;;;;4966628;28;20561;-76
2023/05/13 04:29:16;;;;;;;13.00;7.82;;;10.80;99.90;;;;;;4969470;28;20097;-77
2023/05/13 04:31:43;;;;;;;11.27;7.30;;;10.80;99.90;;;;;;4980821;28;20375;-76
2023/05/13 04:34:08;;;;;;;11.82;8.52;;;10.80;99.90;;;;;;4964545;28;20542;-77
2023/05/13 04:36:34;;;;;;;12.32;8.57;;;10.90;99.90;;;;;;4959204;28;20204;-77
2023/05/13 04:38:59;;;;;;;12.18;8.70;;;10.90;99.90;;;;;;4973024;28;20062;-77
2023/05/13 04:41:25;;;;;;;10.20;8.00;;;10.90;99.90;;;;;;4973541;28;20027;-77
2023/05/13 04:43:50;;;;;;;17.02;8.52;;;10.90;99.90;;;;;;4974965;28;20039;-77
2023/05/13 04:46:16;;;;;;;12.45;8.57;;;11.00;99.90;;;;;;4975526;28;20545;-77
2023/05/13 04:48:41;;;;;;;12.20;7.78;;;11.00;99.90;;;;;;4975690;28;20110;-77
2023/05/13 04:51:07;;;;;;;9.32;7.22;;;11.00;99.90;;;;;;4967482;28;20105;-77
2023/05/13 04:53:33;;;;;;;10.88;8.13;;;11.00;99.90;;;;;;4974225;28;20095;-77
2023/05/13 04:56:01;;;;;;;28.23;10.13;;;11.10;99.90;;;;;;4970779;28;20391;-78
2023/05/13 04:58:27;;;;;;;9.70;8.40;;;11.10;99.90;;;;;;4971674;28;20027;-77
2023/05/13 05:00:53;;;;;;;15.63;9.57;;;11.10;99.90;;;;;;4975244;28;20031;-77
2023/05/13 05:03:19;;;;;;;11.38;9.38;;;11.20;99.90;;;;;;4954364;28;20202;-77
2023/05/13 05:05:45;;;;;;;11.65;9.18;;;11.20;99.90;;;;;;4972102;28;20050;-77
2023/05/13 05:08:10;;;;;;;11.70;8.23;;;11.20;99.90;;;;;;4963072;28;20027;-77
2023/05/13 05:10:36;;;;;;;12.00;9.30;;;11.20;99.90;;;;;;4964275;28;20487;-77
2023/05/13 05:13:02;;;;;;;14.77;8.98;;;11.20;99.90;;;;;;4967799;28;20045;-78
2023/05/13 05:15:28;;;;;;;11.73;9.18;;;11.30;99.90;;;;;;4972299;28;20030;-77
2023/05/13 05:17:54;;;;;;;15.43;9.15;;;11.30;99.90;;;;;;4973645;28;20480;-76
2023/05/13 05:20:20;;;;;;;13.98;9.30;;;11.40;99.90;;;;;;4962170;28;20043;-77
2023/05/13 05:22:45;;;;;;;12.05;8.07;;;11.60;99.90;;;;;;4952885;28;20039;-77
2023/05/13 05:25:11;;;;;;;9.30;7.15;;;11.80;99.90;;;;;;4948744;28;20082;-77
2023/05/13 05:27:36;;;;;;;11.90;8.32;;;12.10;99.90;;;;;;4950546;29;20514;-77
2023/05/13 05:30:02;;;;;;;11.35;8.23;;;12.30;99.90;;;;;;4937679;29;20476;-77
2023/05/13 05:32:28;;;;;;;10.85;8.48;;;12.50;99.90;;;;;;4953629;28;20085;-77
2023/05/13 05:34:53;;;;;;;11.45;8.98;;;12.60;99.90;;;;;;4937279;29;20023;-77
2023/05/13 05:37:19;;;;;;;13.43;8.82;;;12.70;99.90;;;;;;4956765;28;20027;-77
2023/05/13 05:39:44;;;;;;;12.07;9.35;;;12.60;99.90;;;;;;4956461;28;20031;-77
2023/05/13 05:42:10;;;;;;;12.10;9.40;;;12.50;99.90;;;;;;4944563;28;20085;-77
2023/05/13 05:44:36;;;;;;;11.40;10.00;;;12.50;99.90;;;;;;4948946;28;20065;-76
2023/05/13 05:47:01;;;;;;;12.65;10.10;;;12.40;99.90;;;;;;4936721;28;20407;-77
2023/05/13 05:49:27;;;;;;;13.02;10.85;;;12.40;99.90;;;;;;4952601;28;20606;-78
2023/05/13 05:51:52;;;;;;;12.75;10.82;;;12.40;99.90;;;;;;4953790;28;20553;-77
2023/05/13 05:54:19;;;;;;;13.57;10.95;;;12.30;99.90;;;;;;4954444;28;20032;-77
2023/05/13 05:56:44;;;;;;;11.65;9.40;;;12.30;99.90;;;;;;4954749;29;20400;-77
2023/05/13 05:59:10;;;;;;;17.38;11.18;;;12.30;99.90;;;;;;4935760;29;20041;-78
2023/05/13 06:01:35;;;;;;;15.00;11.10;;;12.40;99.90;;;;;;4953862;29;20035;-78
2023/05/13 06:04:05;;;;;;;11.55;10.27;;;12.40;99.90;;;;;;4954546;29;20475;-78
2023/05/13 06:06:31;;;;;;;13.05;10.07;;;12.40;99.90;;;;;;4954802;29;20260;-78
2023/05/13 06:08:57;;;;;;;14.02;11.40;;;12.30;99.90;;;;;;4952636;29;20023;-78
2023/05/13 06:11:22;;;;;;;11.48;8.98;;;12.30;99.90;;;;;;4953849;28;20039;-78
2023/05/13 06:13:48;;;;;;;15.57;10.75;;;12.20;99.90;;;;;;4936627;29;20042;-78
2023/05/13 06:16:14;;;;;;;11.93;10.23;;;12.30;99.90;;;;;;4953945;29;20027;-78
2023/05/13 06:18:39;;;;;;;14.00;10.80;;;12.40;99.90;;;;;;4954460;29;20122;-78
2023/05/13 06:21:05;;;;;;;13.30;10.93;;;12.60;99.90;;;;;;4969672;28;20046;-78
2023/05/13 06:23:30;;;;;;;13.15;9.82;;;12.70;99.90;;;;;;4973659;28;20383;-77
2023/05/13 06:25:58;;;;;;;12.80;10.20;;;12.80;99.90;;;;;;4973020;28;20047;-78
2023/05/13 06:28:23;;;;;;;12.75;9.77;;;12.80;99.90;;;;;;4954320;28;20031;-77
2023/05/13 06:30:49;;;;;;;13.13;9.43;;;12.80;99.90;;;;;;4972665;28;20031;-78
2023/05/13 06:33:15;;;;;;;13.60;10.07;;;12.90;99.90;;;;;;4972149;28;20383;-78
2023/05/13 06:35:40;;;;;;;12.30;8.70;;;13.10;99.90;;;;;;4973323;28;20030;-78
2023/05/13 06:38:06;;;;;;;15.32;10.18;;;13.30;99.90;;;;;;4968925;28;20034;-78
2023/05/13 06:40:32;;;;;;;11.95;9.23;;;13.50;99.90;;;;;;4973455;28;20042;-78
2023/05/13 06:42:58;;;;;;;12.45;9.60;;;13.70;99.90;;;;;;4973231;28;20033;-78
2023/05/13 06:45:24;;;;;;;10.27;9.10;;;13.90;99.90;;;;;;4965322;28;20043;-77
2023/05/13 06:47:51;;;;;;;12.38;9.65;;;14.00;99.90;;;;;;4973248;28;20074;-78
2023/05/13 06:50:17;;;;;;;13.85;10.02;;;14.20;99.90;;;;;;4972137;28;20093;-78
2023/05/13 06:52:43;;;;;;;11.25;9.25;;;14.30;99.90;;;;;;4968963;28;20031;-78
2023/05/13 06:55:09;;;;;;;12.88;9.25;;;14.40;99.90;;;;;;4962417;28;20022;-78
2023/05/13 06:57:35;;;;;;;10.65;8.65;;;14.50;99.90;;;;;;4970775;28;20030;-78
2023/05/13 07:00:02;;;;;;;13.35;8.77;;;14.60;99.90;;;;;;4964266;28;20085;-77
2023/05/13 07:02:28;;;;;;;11.52;9.55;;;14.70;99.90;;;;;;4972332;28;20041;-78
2023/05/13 07:04:53;;;;;;;10.70;7.93;;;14.70;99.90;;;;;;4974677;28;20034;-79
2023/05/13 07:07:19;;;;;;;11.40;8.90;;;14.80;99.90;;;;;;4973961;28;20100;-78
2023/05/13 07:09:44;;;;;;;15.85;9.25;;;14.90;99.90;;;;;;4973228;28;20027;-78
2023/05/13 07:12:10;;;;;;;11.05;9.10;;;15.10;99.90;;;;;;4972656;28;20030;-78
2023/05/13 07:14:36;;;;;;;9.63;8.38;;;15.20;99.90;;;;;;4972222;28;20157;-78
2023/05/13 07:17:03;;;;;;;17.60;8.80;;;15.40;99.90;;;;;;4974000;28;20061;-78
2023/05/13 07:19:29;;;;;;;9.60;8.02;;;15.40;99.90;;;;;;4974003;28;20039;-78
2023/05/13 07:21:54;;;;;;;10.25;8.57;;;15.40;99.90;;;;;;4972697;28;20035;-78
2023/05/13 07:24:20;;;;;;;12.00;9.70;;;15.50;99.90;;;;;;4973823;28;20045;-78
2023/05/13 07:26:46;;;;;;;11.13;8.93;;;15.50;99.90;;;;;;4974231;28;20041;-78
2023/05/13 07:29:11;;;;;;;10.70;8.43;;;15.50;99.90;;;;;;4973757;28;20035;-75
2023/05/13 07:31:37;;;;;;;12.15;8.57;;;15.60;99.90;;;;;;4974191;28;20034;-76
2023/05/13 07:34:03;;;;;;;14.23;8.13;;;15.60;99.90;;;;;;4972416;28;20035;-78
2023/05/13 07:36:28;;;;;;;9.20;7.00;;;15.70;99.90;;;;;;4971837;28;20403;-78
2023/05/13 07:38:54;;;;;;;14.23;7.95;;;15.80;99.90;;;;;;4974200;28;20031;-78
2023/05/13 07:41:20;;;;;;;9.00;7.22;;;15.90;99.90;;;;;;4974356;28;20037;-78
2023/05/13 07:43:45;;;;;;;8.00;6.97;;;16.00;99.90;;;;;;4974533;28;20019;-78
2023/05/13 07:46:11;;;;;;;8.10;6.95;;;16.10;99.90;;;;;;4972785;28;20115;-78
2023/05/13 07:48:36;;;;;;;11.85;8.15;;;16.20;99.90;;;;;;4974385;28;20027;-78
2023/05/13 07:51:02;;;;;;;9.77;6.88;;;16.20;99.90;;;;;;4973662;28;20395;-78
2023/05/13 07:53:27;;;;;;;9.40;7.30;;;16.40;99.90;;;;;;4973387;28;20034;-78
2023/05/13 07:55:53;;;;;;;8.77;6.82;;;16.40;99.90;;;;;;4974195;28;20049;-78
2023/05/13 07:58:19;;;;;;;10.23;7.35;;;16.50;99.90;;;;;;4972300;28;20125;-78
2023/05/13 08:00:45;;;;;;;9.98;7.22;;;16.50;99.90;;;;;;4974328;28;20037;-78
2023/05/13 08:03:11;;;;;;;9.02;6.85;;;16.70;99.90;;;;;;4959584;28;20026;-75
2023/05/13 08:05:37;;;;;;;9.45;6.57;;;16.90;99.90;;;;;;4977385;28;20050;-75
2023/05/13 08:08:03;;;;;;;6.93;6.05;;;17.00;99.90;;;;;;4977030;28;20029;-76
2023/05/13 08:10:29;;;;;;;9.90;5.95;;;17.10;99.90;;;;;;4976277;28;20106;-75
2023/05/13 08:12:56;;;;;;;11.27;6.78;;;17.20;99.90;;;;;;4976661;28;20033;-75
2023/05/13 08:15:22;;;;;;;12.32;7.03;;;17.30;99.90;;;;;;4977050;28;20031;-76
2023/05/13 08:17:48;;;;;;;8.07;6.35;;;17.40;99.90;;;;;;4977213;28;20031;-78
2023/05/13 08:20:14;;;;;;;7.80;5.90;;;17.50;99.90;;;;;;4976938;28;20517;-78
2023/05/13 08:22:40;;;;;;;7.75;5.43;;;17.50;99.90;;;;;;4976491;28;20494;-78
2023/05/13 08:25:05;;;;;;;10.57;5.55;;;17.70;99.90;;;;;;4977039;28;20043;-79
2023/05/13 08:27:31;;;;;;;7.15;5.63;;;17.80;99.90;;;;;;4977406;28;20085;-78
2023/05/13 08:29:57;;;;;;;9.38;4.93;;;17.80;99.90;;;;;;4976256;28;20050;-79
2023/05/13 08:32:22;;;;;;;9.48;6.00;;;18.00;99.90;;;;;;4977031;28;20030;-76
2023/05/13 08:34:48;;;;;;;10.75;6.40;;;18.10;99.90;;;;;;4976686;28;20054;-78
2023/05/13 08:37:14;;;;;;;9.82;5.43;;;18.10;99.90;;;;;;4975742;28;20534;-78
2023/05/13 08:39:39;;;;;;;7.30;4.50;;;18.30;99.90;;;;;;4976883;28;20027;-78
2023/05/13 08:42:07;;;;;;;8.63;4.50;;;18.30;99.90;;;;;;4976973;28;20467;-78
2023/05/13 08:44:38;;;;;;;8.30;4.50;;;18.40;99.90;;;;;;4976298;28;20034;-78
2023/05/13 08:47:15;;;;;;;6.47;4.65;;;18.40;99.90;;;;;;4975674;28;20124;-78
2023/05/13 08:49:41;;;;;;;7.32;4.05;;;18.50;99.90;;;;;;4977126;28;20051;-78
2023/05/13 08:52:07;;;;;;;8.27;4.53;;;18.70;99.90;;;;;;4976197;28;20039;-78
2023/05/13 08:54:33;;;;;;;6.47;3.88;;;18.80;99.90;;;;;;4976753;28;20114;-78
2023/05/13 08:56:58;;;;;;;7.85;4.07;;;18.90;99.90;;;;;;4976217;28;20059;-78
2023/05/13 08:59:24;;;;;;;5.40;3.47;;;19.00;99.90;;;;;;4973390;28;20432;-78
2023/05/13 09:01:52;;;;;;;14.82;5.68;;;19.10;99.90;;;;;;4977030;28;20034;-78
2023/05/13 09:04:18;;;;;;;6.88;4.32;;;19.20;99.90;;;;;;4958965;28;20111;-78
2023/05/13 09:06:47;;;;;;;14.63;4.75;;;19.30;99.90;;;;;;4957365;29;20042;-78
2023/05/13 09:09:12;;;;;;;8.20;4.78;;;19.40;99.90;;;;;;4971827;28;20066;-78
2023/05/13 09:11:39;;;;;;;5.40;3.42;;;19.60;99.90;;;;;;4974366;28;20134;-78
2023/05/13 09:14:06;;;;;;;7.97;3.85;;;19.70;99.90;;;;;;4976011;28;20027;-78
2023/05/13 09:16:32;;;;;;;6.05;2.70;;;19.80;99.90;;;;;;4976696;28;20026;-77
2023/05/13 09:18:59;;;;;;;5.07;2.50;;;19.80;99.90;;;;;;4976172;28;20042;-77
2023/05/13 09:21:34;;;;;;;4.32;2.72;;;20.00;99.90;;;;;;4976371;28;20119;-78
2023/05/13 09:24:09;;;;;;;4.78;2.78;;;20.00;99.90;;;;;;4956453;28;20062;-78
2023/05/13 09:26:35;;;;;;;5.25;2.90;;;20.10;99.90;;;;;;4969516;28;20070;-77
2023/05/13 09:29:13;;;;;;;5.13;2.97;;;20.30;99.90;;;;;;4963941;28;20043;-78
2023/05/13 09:31:38;;;;;;;7.53;3.38;;;20.40;99.90;;;;;;4957809;28;20027;-78
2023/05/13 09:34:04;;;;;;;4.60;2.30;;;20.50;99.90;;;;;;4969422;28;20113;-78
2023/05/13 09:36:31;;;;;;;8.05;2.50;;;20.60;99.90;;;;;;4957131;28;20511;-78
2023/05/13 09:38:57;;;;;;;5.45;2.53;;;20.70;99.90;;;;;;4956011;29;20038;-78
2023/05/13 09:41:25;;;;;;;7.35;2.30;;;20.80;99.00;;;;;;4956443;28;20043;-78
2023/05/13 09:43:51;;;;;;;3.70;1.67;;;20.90;98.00;;;;;;4959120;28;20027;-78
2023/05/13 09:46:17;;;;;;;7.78;1.85;;;20.90;97.10;;;;;;4968883;28;20039;-77
2023/05/13 09:48:43;;;;;;;3.60;2.35;;;21.00;96.40;;;;;;4956650;29;20039;-78
2023/05/13 09:51:08;;;;;;;5.90;2.20;;;21.10;96.20;;;;;;4955596;28;20094;-77
2023/05/13 09:53:34;;;;;;;3.88;2.05;;;21.30;96.30;;;;;;4955927;29;20031;-78
2023/05/13 09:56:00;;;;;;;4.38;1.95;;;21.30;96.50;;;;;;4956201;29;20399;-77
2023/05/13 09:58:27;;;;;;;3.83;1.67;;;21.50;95.80;;;;;;4959152;28;20030;-77
2023/05/13 10:00:54;;;;;;;3.00;1.50;;;21.60;95.50;;;;;;4955043;28;20023;-78
2023/05/13 10:03:20;;;;;;;5.80;1.70;;;21.60;94.70;;;;;;4956057;29;20543;-78
2023/05/13 10:05:50;;;;;;;4.97;1.30;;;21.60;92.30;;;;;;4970972;28;20038;-78
2023/05/13 10:08:17;;;;;;;2.55;1.23;;;21.60;92.30;;;;;;4955365;28;20025;-77
2023/05/13 10:10:44;;;;;;;4.50;1.48;;;21.70;91.90;;;;;;4960483;28;20028;-78
2023/05/13 10:13:13;;;;;;;4.38;1.40;;;21.80;90.90;;;;;;4959701;28;20027;-77
2023/05/13 10:15:47;;;;;;;4.43;1.33;;;22.00;89.80;;;;;;4957532;28;20034;-78
2023/05/13 10:18:13;;;;;;;3.25;1.33;;;22.00;86.30;;;;;;4960420;28;20023;-78
2023/05/13 10:20:40;;;;;;;5.43;1.40;;;22.10;85.00;;;;;;4971265;28;20043;-77
2023/05/13 10:23:06;;;;;;;4.57;1.38;;;22.10;82.70;;;;;;4959228;28;20526;-77
2023/05/13 10:25:32;;;;;;;4.57;1.30;;;22.10;79.60;;;;;;4955609;28;20050;-77
2023/05/13 10:27:58;;;;;;;4.13;1.48;;;22.20;77.20;;;;;;4944649;28;20388;-77
2023/05/13 10:30:26;;;;;;;3.80;1.20;;;22.20;75.00;;;;;;4961557;28;20027;-77
2023/05/13 10:32:53;;;;;;;4.93;1.38;;;22.20;73.80;;;;;;4972936;28;20034;-77
2023/05/13 10:35:20;;;;;;;4.00;1.20;;;22.30;72.90;;;;;;4959843;28;20023;-78
2023/05/13 10:37:58;;;;;;;2.75;1.35;;;22.30;74.40;;;;;;4957227;28;20027;-77
2023/05/13 10:41:01;;;;;;;3.65;1.13;;;22.40;73.60;;;;;;4964701;28;20035;-77
2023/05/13 10:43:28;;;;;;;4.15;1.30;;;22.50;72.70;;;;;;4952971;28;20480;-78
2023/05/13 10:46:00;;;;;;;5.28;1.40;;;22.50;72.30;;;;;;4973686;28;20557;-78
2023/05/13 10:48:26;;;;;;;3.53;0.90;;;22.60;70.30;;;;;;4974209;28;20058;-77
2023/05/13 10:50:55;;;;;;;3.67;1.10;;;22.60;70.40;;;;;;4963695;28;20031;-78
2023/05/13 10:53:27;;;;;;;2.63;0.95;;;22.60;70.30;;;;;;4956690;28;20019;-78
2023/05/13 10:55:55;;;;;;;1.98;0.90;;;22.70;69.70;;;;;;4958470;28;20110;-77
2023/05/13 10:58:27;;;;;;;3.17;1.17;;;22.80;68.80;;;;;;4955909;28;20074;-77
2023/05/13 11:00:53;;;;;;;4.53;1.65;;;22.80;68.10;;;;;;4951514;28;20143;-77
2023/05/13 11:03:18;;;;;;;5.65;1.27;;;22.80;67.70;;;;;;4968713;28;20453;-77
2023/05/13 11:05:46;;;;;;;2.60;1.00;;;22.80;66.90;;;;;;4959305;28;20039;-77
2023/05/13 11:08:35;;;;;;;3.97;1.20;;;22.80;65.20;;;;;;4959397;28;20030;-78
2023/05/13 11:11:00;;;;;;;5.18;1.35;;;22.80;64.20;;;;;;4954835;28;20492;-78
2023/05/13 11:13:36;;;;;;;3.05;1.05;;;22.80;63.40;;;;;;4937472;29;20043;-78
2023/05/13 11:16:05;;;;;;;3.72;1.20;;;22.80;63.80;;;;;;4939721;29;20027;-77
2023/05/13 11:18:33;;;;;;;3.50;1.10;;;22.90;64.40;;;;;;4945127;28;20034;-78
2023/05/13 11:21:05;;;;;;;4.43;1.50;;;23.00;63.60;;;;;;4973534;28;20503;-77
2023/05/13 11:23:48;;;;;;;3.58;1.27;;;23.10;62.30;;;;;;4973761;28;20030;-78
2023/05/13 11:26:15;;;;;;;3.13;1.13;;;23.00;60.80;;;;;;4957555;28;20494;-78
2023/05/13 11:28:58;;;;;;;4.75;1.23;;;23.00;61.80;;;;;;4964111;28;20070;-78
2023/05/13 11:31:26;;;;;;;2.92;1.30;;;23.10;61.30;;;;;;4969629;28;20360;-77
2023/05/13 11:34:09;;;;;;;2.83;1.20;;;23.10;61.50;;;;;;4973603;28;20503;-78
2023/05/13 11:36:39;;;;;;;2.05;1.00;;;23.20;61.30;;;;;;4976756;28;20386;-77
2023/05/13 11:39:11;;;;;;;4.82;1.08;;;23.30;61.70;;;;;;4964150;28;20118;-78
2023/05/13 11:41:40;;;;;;;3.85;1.40;;;23.40;62.10;;;;;;4958596;28;20479;-78
2023/05/13 11:44:05;;;;;;;3.58;1.10;;;23.50;61.90;;;;;;4970413;28;20031;-78
2023/05/13 11:46:31;;;;;;;4.80;1.20;;;23.50;59.70;;;;;;4969706;28;20035;-78
2023/05/13 11:48:57;;;;;;;4.63;1.00;;;23.50;59.60;;;;;;4958711;29;20128;-77
2023/05/13 11:51:24;;;;;;;3.75;1.13;;;23.40;59.50;;;;;;4960448;28;20078;-78
2023/05/13 11:54:02;;;;;;;6.22;1.10;;;23.40;59.40;;;;;;4967476;28;20023;-78
2023/05/13 11:56:28;;;;;;;5.07;1.33;;;23.20;59.10;;;;;;4938668;29;20032;-78
2023/05/13 11:58:54;;;;;;;2.50;1.00;;;23.10;58.50;;;;;;4951031;28;20023;-77
2023/05/13 12:01:20;;;;;;;6.30;1.20;;;23.10;58.60;;;;;;4971821;28;20034;-78
2023/05/13 12:03:46;;;;;;;3.92;1.23;;;23.20;59.60;;;;;;4957876;28;20032;-77
2023/05/13 12:06:12;;;;;;;4.07;1.35;;;23.20;60.90;;;;;;4956067;28;20138;-77
2023/05/13 12:08:44;;;;;;;2.85;0.95;;;23.50;61.30;;;;;;4976854;28;20073;-78
2023/05/13 12:11:12;;;;;;;3.67;1.23;;;23.60;60.10;;;;;;4958006;28;20045;-78
2023/05/13 12:13:39;;;;;;;4.78;1.10;;;23.60;59.70;;;;;;4966235;28;20031;-78
2023/05/13 12:16:06;;;;;;;2.05;1.00;;;23.70;59.20;;;;;;4958668;28;20027;-78
2023/05/13 12:18:32;;;;;;;5.30;1.38;;;23.70;58.00;;;;;;4963100;28;20383;-77
2023/05/13 12:20:58;;;;;;;3.15;1.20;;;23.70;58.40;;;;;;4966786;28;20082;-78
2023/05/13 12:23:23;;;;;;;2.50;1.42;;;23.80;58.30;;;;;;4973953;28;20392;-78
2023/05/13 12:25:53;;;;;;;4.75;1.00;;;23.70;58.30;;;;;;4975372;28;20171;-78
2023/05/13 12:28:19;;;;;;;3.88;1.60;;;23.60;59.70;;;;;;4962605;28;20058;-78
2023/05/13 12:31:00;;;;;;;2.95;1.23;;;23.50;59.80;;;;;;4977032;28;20053;-78
2023/05/13 12:33:27;;;;;;;12.50;1.92;;;23.30;59.50;;;;;;4964984;28;20063;-77
2023/05/13 12:36:13;;;;;;;4.47;1.55;;;23.30;61.20;;;;;;4965862;28;20039;-78
2023/05/13 12:38:39;;;;;;;5.28;1.25;;;23.40;59.40;;;;;;4973114;28;20379;-78
2023/05/13 12:41:14;;;;;;;5.53;1.52;;;23.30;58.90;;;;;;4939895;29;20031;-78
2023/05/13 12:43:40;;;;;;;3.17;1.10;;;23.30;60.30;;;;;;4972465;28;20027;-78